createdAt,value
2023-04-08T00:02:23.535Z,29.20
2023-04-08T00:04:54.866Z,29.20
2023-04-08T00:07:26.064Z,29.30
2023-04-08T00:09:57.903Z,29.30
2023-04-08T00:12:29.882Z,29.30
2023-04-08T00:15:01.453Z,29.30
2023-04-08T00:17:32.874Z,29.40
2023-04-08T00:20:04.008Z,29.40
2023-04-08T00:22:35.396Z,29.40
2023-04-08T00:25:08.230Z,29.40
2023-04-08T00:27:39.330Z,29.40
2023-04-08T00:30:11.197Z,29.50
2023-04-08T00:32:42.343Z,29.50
2023-04-08T00:35:14.047Z,29.50
2023-04-08T00:37:45.206Z,29.60
2023-04-08T00:40:16.148Z,29.50
2023-04-08T00:42:47.416Z,29.60
2023-04-08T00:45:18.909Z,29.60
2023-04-08T00:47:51.480Z,29.70
2023-04-08T00:50:22.702Z,29.70
2023-04-08T00:52:53.744Z,29.80
2023-04-08T00:55:24.851Z,29.80
2023-04-08T00:57:56.382Z,29.80
2023-04-08T01:00:27.611Z,29.80
2023-04-08T01:03:29.695Z,29.80
2023-04-08T01:06:03.149Z,29.90
2023-04-08T01:08:49.309Z,30.00
2023-04-08T01:11:22.553Z,30.10
2023-04-08T01:13:56.921Z,30.10
2023-04-08T01:16:29.478Z,30.20
2023-04-08T01:19:00.668Z,30.20
2023-04-08T01:21:32.130Z,30.20
2023-04-08T01:24:26.701Z,30.30
2023-04-08T01:26:59.228Z,30.40
2023-04-08T01:29:30.738Z,30.40
2023-04-08T01:32:03.224Z,30.50
2023-04-08T01:34:36.235Z,30.40
2023-04-08T01:37:08.715Z,30.50
2023-04-08T01:39:41.798Z,30.50
2023-04-08T01:42:13.859Z,30.50
2023-04-08T01:44:46.283Z,30.60
2023-04-08T01:47:17.896Z,30.70
2023-04-08T01:49:49.449Z,30.70
2023-04-08T01:52:22.616Z,30.70
2023-04-08T01:54:54.109Z,30.80
2023-04-08T01:57:30.561Z,30.80
2023-04-08T02:00:04.265Z,30.90
2023-04-08T02:02:37.585Z,31.00
2023-04-08T02:05:09.284Z,31.00
2023-04-08T02:07:40.748Z,31.10
2023-04-08T02:10:12.346Z,31.10
2023-04-08T02:12:43.404Z,31.20
2023-04-08T02:15:16.041Z,31.20
2023-04-08T02:21:00.568Z,31.40
2023-04-08T02:23:32.960Z,31.40
2023-04-08T02:26:06.634Z,31.50
2023-04-08T02:28:39.084Z,31.50
2023-04-08T02:31:13.879Z,31.50
2023-04-08T02:33:46.474Z,31.60
2023-04-08T02:36:17.936Z,31.50
2023-04-08T02:38:52.880Z,31.60
2023-04-08T02:41:23.994Z,31.60
2023-04-08T02:43:56.767Z,31.60
2023-04-08T02:46:27.847Z,31.70
2023-04-08T02:48:58.944Z,31.70
2023-04-08T02:51:30.126Z,31.70
2023-04-08T02:54:01.109Z,31.80
2023-04-08T02:56:32.475Z,31.80
2023-04-08T02:59:03.759Z,31.80
2023-04-08T03:01:34.824Z,31.80
2023-04-08T03:04:06.481Z,31.80
2023-04-08T03:06:38.089Z,31.90
2023-04-08T03:09:09.174Z,32.00
2023-04-08T03:11:40.309Z,32.10
2023-04-08T03:14:11.718Z,32.20
2023-04-08T03:16:43.544Z,32.40
2023-04-08T03:19:14.772Z,32.40
2023-04-08T03:21:46.085Z,32.60
2023-04-08T03:24:17.351Z,32.70
2023-04-08T03:26:48.661Z,32.70
2023-04-08T03:29:20.316Z,32.80
2023-04-08T03:31:51.746Z,32.80
2023-04-08T03:34:22.846Z,32.90
2023-04-08T03:36:53.957Z,32.90
2023-04-08T03:39:25.609Z,32.90
2023-04-08T03:41:56.993Z,32.90
2023-04-08T03:44:28.239Z,33.00
2023-04-08T03:46:59.364Z,33.10
2023-04-08T03:49:30.700Z,33.10
2023-04-08T03:52:01.677Z,33.10
2023-04-08T03:54:32.771Z,33.20
2023-04-08T03:57:04.649Z,33.20
2023-04-08T03:59:38.429Z,33.30
2023-04-08T04:02:09.869Z,33.40
2023-04-08T04:04:41.397Z,33.50
2023-04-08T04:07:12.394Z,33.50
2023-04-08T04:09:43.776Z,33.60
2023-04-08T04:12:14.971Z,33.70
2023-04-08T04:14:46.219Z,33.70
2023-04-08T04:17:17.322Z,33.70
2023-04-08T04:19:48.568Z,33.70
2023-04-08T04:22:19.558Z,33.80
2023-04-08T04:24:51.311Z,33.80
2023-04-08T04:27:22.419Z,33.90
2023-04-08T04:29:53.756Z,33.90
2023-04-08T04:32:24.764Z,34.00
2023-04-08T04:34:55.713Z,34.00
2023-04-08T04:37:27.515Z,34.00
2023-04-08T04:39:59.106Z,34.10
2023-04-08T04:42:30.359Z,34.20
2023-04-08T04:45:01.723Z,34.20
2023-04-08T04:47:33.731Z,34.30
2023-04-08T04:50:05.017Z,34.40
2023-04-08T04:52:37.554Z,34.40
2023-04-08T04:55:09.300Z,34.40
2023-04-08T04:57:40.784Z,34.40
2023-04-08T05:00:12.668Z,34.50
2023-04-08T05:02:44.315Z,34.60
2023-04-08T05:05:15.811Z,34.70
2023-04-08T05:07:47.414Z,34.70
2023-04-08T05:10:18.692Z,34.80
2023-04-08T05:13:01.188Z,34.80
2023-04-08T05:15:32.430Z,34.90
2023-04-08T05:18:03.892Z,34.90
2023-04-08T05:20:35.163Z,34.90
2023-04-08T05:23:06.302Z,34.90
2023-04-08T05:25:37.602Z,35.00
2023-04-08T05:28:08.575Z,35.00
2023-04-08T05:30:39.633Z,35.00
2023-04-08T05:33:10.732Z,35.00
2023-04-08T05:35:42.126Z,35.10
2023-04-08T05:38:13.352Z,35.10
2023-04-08T05:40:45.282Z,35.10
2023-04-08T05:43:16.351Z,35.10
2023-04-08T05:45:47.548Z,35.10
2023-04-08T05:48:18.529Z,35.30
2023-04-08T05:50:49.674Z,35.40
2023-04-08T05:53:20.609Z,35.40
2023-04-08T05:55:52.364Z,35.40
2023-04-08T05:58:23.718Z,35.40
2023-04-08T06:00:56.609Z,35.50
2023-04-08T06:03:27.882Z,35.40
2023-04-08T06:05:59.691Z,35.50
2023-04-08T06:08:30.760Z,35.40
2023-04-08T06:11:01.916Z,35.30
2023-04-08T06:13:33.354Z,35.30
2023-04-08T06:16:15.063Z,35.30
2023-04-08T06:18:46.187Z,35.30
2023-04-08T06:21:18.034Z,35.30
2023-04-08T06:23:49.541Z,35.30
2023-04-08T06:26:20.526Z,35.20
2023-04-08T06:28:53.190Z,35.10
2023-04-08T06:31:24.394Z,35.10
2023-04-08T06:33:57.025Z,35.10
2023-04-08T06:36:29.436Z,35.10
2023-04-08T06:39:01.269Z,35.10
2023-04-08T06:41:32.710Z,35.10
2023-04-08T06:44:04.477Z,35.10
2023-04-08T06:46:35.982Z,35.10
2023-04-08T06:49:08.150Z,35.20
2023-04-08T06:51:39.136Z,35.20
2023-04-08T06:54:11.947Z,35.10
2023-04-08T06:56:43.285Z,35.10
2023-04-08T06:59:14.640Z,35.10
2023-04-08T07:01:45.865Z,35.10
2023-04-08T07:04:17.008Z,35.10
2023-04-08T07:06:48.329Z,35.20
2023-04-08T07:09:19.707Z,35.20
2023-04-08T07:11:50.767Z,35.20
2023-04-08T07:14:21.744Z,35.10
2023-04-08T07:16:52.772Z,35.10
2023-04-08T07:19:25.314Z,35.10
2023-04-08T07:21:56.375Z,35.10
2023-04-08T07:24:35.380Z,35.00
2023-04-08T07:27:06.519Z,34.90
2023-04-08T07:29:37.802Z,34.90
2023-04-08T07:32:09.342Z,34.80
2023-04-08T07:34:40.433Z,34.80
2023-04-08T07:37:11.922Z,34.70
2023-04-08T07:39:42.960Z,34.70
2023-04-08T07:42:13.964Z,34.60
2023-04-08T07:44:45.178Z,34.60
2023-04-08T07:47:16.520Z,34.60
2023-04-08T07:49:49.367Z,34.50
2023-04-08T07:52:20.645Z,34.50
2023-04-08T07:54:51.661Z,34.40
2023-04-08T07:57:23.298Z,34.50
2023-04-08T07:59:54.719Z,34.50
2023-04-08T08:02:26.355Z,34.50
2023-04-08T08:04:57.615Z,34.50
2023-04-08T08:07:28.675Z,34.60
2023-04-08T08:09:59.693Z,34.50
2023-04-08T08:12:30.950Z,34.50
2023-04-08T08:15:02.239Z,34.50
2023-04-08T08:17:34.834Z,34.40
2023-04-08T08:20:06.548Z,34.40
2023-04-08T08:22:44.379Z,34.40
2023-04-08T08:25:11.065Z,34.30
2023-04-08T08:27:43.430Z,34.30
2023-04-08T08:30:14.812Z,34.30
2023-04-08T08:32:46.279Z,34.30
2023-04-08T08:35:17.661Z,34.20
2023-04-08T08:37:48.987Z,34.20
2023-04-08T08:40:20.401Z,34.20
2023-04-08T08:42:55.584Z,34.10
2023-04-08T08:45:26.554Z,34.10
2023-04-08T08:47:58.638Z,34.10
2023-04-08T08:50:30.032Z,34.10
2023-04-08T08:53:00.991Z,34.00
2023-04-08T08:56:02.149Z,34.00
2023-04-08T08:58:09.762Z,34.00
2023-04-08T09:00:44.335Z,34.00
2023-04-08T09:03:32.879Z,34.00
2023-04-08T09:06:06.397Z,34.00
2023-04-08T09:08:38.864Z,34.00
2023-04-08T09:11:26.124Z,34.00
2023-04-08T09:13:58.267Z,34.00
2023-04-08T09:16:29.363Z,33.90
2023-04-08T09:19:03.319Z,33.90
2023-04-08T09:21:34.874Z,33.90
2023-04-08T09:24:06.288Z,33.90
2023-04-08T09:26:39.712Z,33.80
2023-04-08T09:29:25.626Z,33.80
2023-04-08T09:31:45.551Z,33.70
2023-04-08T09:34:21.384Z,33.70
2023-04-08T09:36:53.302Z,33.70
2023-04-08T09:39:24.495Z,33.70
2023-04-08T09:41:56.967Z,33.60
2023-04-08T09:44:30.425Z,33.60
2023-04-08T09:47:09.831Z,33.60
2023-04-08T09:50:01.708Z,33.60
2023-04-08T09:52:34.998Z,33.60
2023-04-08T09:55:07.645Z,33.60
2023-04-08T09:57:50.477Z,33.50
2023-04-08T10:00:21.565Z,33.50
2023-04-08T10:03:07.018Z,33.40
2023-04-08T10:05:40.896Z,33.40
2023-04-08T10:08:12.206Z,33.40
2023-04-08T10:10:45.588Z,33.30
2023-04-08T10:13:17.407Z,33.30
2023-04-08T10:15:49.830Z,33.30
2023-04-08T10:18:23.277Z,33.20
2023-04-08T10:20:54.388Z,33.20
2023-04-08T10:23:28.636Z,33.10
2023-04-08T10:25:59.647Z,33.10
2023-04-08T10:28:31.221Z,33.10
2023-04-08T10:31:03.197Z,33.10
2023-04-08T10:33:40.777Z,33.10
2023-04-08T10:36:13.321Z,33.10
2023-04-08T10:38:44.824Z,33.10
2023-04-08T10:41:17.203Z,33.00
2023-04-08T10:43:49.573Z,33.00
2023-04-08T10:46:20.843Z,33.00
2023-04-08T10:49:04.878Z,32.90
2023-04-08T10:51:36.654Z,32.90
2023-04-08T10:54:14.550Z,32.80
2023-04-08T10:56:55.923Z,32.80
2023-04-08T10:59:34.048Z,32.80
2023-04-08T11:02:05.234Z,32.80
2023-04-08T11:04:36.649Z,32.80
2023-04-08T11:07:10.456Z,32.80
2023-04-08T11:09:42.856Z,32.80
2023-04-08T11:12:14.684Z,32.70
2023-04-08T11:14:47.340Z,32.70
2023-04-08T11:17:19.114Z,32.60
2023-04-08T11:19:50.288Z,32.60
2023-04-08T11:22:21.457Z,32.60
2023-04-08T11:24:52.746Z,32.60
2023-04-08T11:27:25.288Z,32.50
2023-04-08T11:30:00.577Z,32.50
2023-04-08T11:32:32.143Z,32.50
2023-04-08T11:35:07.917Z,32.40
2023-04-08T11:37:43.189Z,32.40
2023-04-08T11:40:15.038Z,32.40
2023-04-08T11:42:47.113Z,32.30
2023-04-08T11:45:21.001Z,32.40
2023-04-08T11:47:52.505Z,32.30
2023-04-08T11:50:27.506Z,32.30
2023-04-08T11:52:58.508Z,32.30
2023-04-08T11:55:32.105Z,32.20
2023-04-08T11:58:08.843Z,32.20
2023-04-08T12:00:40.029Z,32.20
2023-04-08T12:03:11.310Z,32.20
2023-04-08T12:05:42.583Z,32.20
2023-04-08T12:08:13.738Z,32.10
2023-04-08T12:10:44.714Z,32.10
2023-04-08T12:13:15.723Z,32.10
2023-04-08T12:15:47.168Z,32.10
2023-04-08T12:18:18.185Z,32.00
2023-04-08T12:20:49.228Z,32.00
2023-04-08T12:23:20.306Z,32.00
2023-04-08T12:25:51.309Z,32.00
2023-04-08T12:28:22.876Z,32.00
2023-04-08T12:30:54.218Z,32.00
2023-04-08T12:33:25.219Z,32.00
2023-04-08T12:35:56.815Z,32.00
2023-04-08T12:38:28.153Z,32.00
2023-04-08T12:40:59.380Z,31.90
2023-04-08T12:43:30.427Z,31.90
2023-04-08T12:46:01.523Z,32.00
2023-04-08T12:48:32.627Z,31.90
2023-04-08T12:51:03.624Z,31.90
2023-04-08T12:53:34.652Z,31.90
2023-04-08T12:56:05.778Z,31.80
2023-04-08T12:58:36.783Z,31.80
2023-04-08T13:01:07.898Z,31.80
2023-04-08T13:03:39.032Z,31.70
2023-04-08T13:06:10.054Z,31.70
2023-04-08T13:08:41.034Z,31.70
2023-04-08T13:11:12.426Z,31.70
2023-04-08T13:13:43.407Z,31.70
2023-04-08T13:16:15.342Z,31.70
2023-04-08T13:18:46.508Z,31.70
2023-04-08T13:21:17.625Z,31.70
2023-04-08T13:23:48.629Z,31.60
2023-04-08T13:26:19.843Z,31.60
2023-04-08T13:29:00.664Z,31.70
2023-04-08T13:31:24.686Z,31.60
2023-04-08T13:33:57.927Z,31.60
2023-04-08T13:36:29.739Z,31.60
2023-04-08T13:39:01.343Z,31.60
2023-04-08T13:41:32.359Z,31.60
2023-04-08T13:44:03.434Z,31.60
2023-04-08T13:46:34.474Z,31.60
2023-04-08T13:49:05.483Z,31.50
2023-04-08T13:51:37.271Z,31.50
2023-04-08T13:54:09.093Z,31.50
2023-04-08T13:56:49.529Z,31.40
2023-04-08T13:59:20.539Z,31.50
2023-04-08T14:01:53.037Z,31.40
2023-04-08T14:04:24.788Z,31.40
2023-04-08T14:06:56.016Z,31.40
2023-04-08T14:09:27.604Z,31.40
2023-04-08T14:11:58.569Z,31.40
2023-04-08T14:14:29.623Z,31.40
2023-04-08T14:17:00.704Z,31.40
2023-04-08T14:19:32.158Z,31.40
2023-04-08T14:22:03.331Z,31.40
2023-04-08T14:24:34.316Z,31.40
2023-04-08T14:27:05.935Z,31.40
2023-04-08T14:29:36.899Z,31.40
2023-04-08T14:32:07.955Z,31.40
2023-04-08T14:34:39.191Z,31.40
2023-04-08T14:37:10.207Z,31.30
2023-04-08T14:39:41.230Z,31.30
2023-04-08T14:42:12.378Z,31.40
2023-04-08T14:44:43.872Z,31.30
2023-04-08T14:47:14.976Z,31.30
2023-04-08T14:49:46.118Z,31.30
2023-04-08T14:52:17.137Z,31.20
2023-04-08T14:54:49.250Z,31.10
2023-04-08T14:57:20.271Z,31.10
2023-04-08T14:59:51.340Z,31.10
2023-04-08T15:02:22.905Z,31.10
2023-04-08T15:04:54.412Z,31.10
2023-04-08T15:07:25.569Z,31.10
2023-04-08T15:09:57.708Z,31.00
2023-04-08T15:12:28.744Z,30.90
2023-04-08T15:15:00.392Z,30.90
2023-04-08T15:17:31.361Z,30.90
2023-04-08T15:20:02.428Z,30.80
2023-04-08T15:22:33.739Z,30.80
2023-04-08T15:25:06.283Z,30.80
2023-04-08T15:27:37.852Z,30.80
2023-04-08T15:30:12.295Z,30.80
2023-04-08T15:32:43.141Z,30.80
2023-04-08T15:35:14.398Z,30.80
2023-04-08T15:37:45.381Z,30.80
2023-04-08T15:40:16.717Z,30.80
2023-04-08T15:42:47.716Z,30.80
2023-04-08T15:45:18.724Z,30.70
2023-04-08T15:47:49.841Z,30.70
2023-04-08T15:50:20.926Z,30.70
2023-04-08T15:52:52.002Z,30.70
2023-04-08T15:55:23.197Z,30.60
2023-04-08T15:57:55.655Z,30.70
2023-04-08T16:00:27.207Z,30.70
2023-04-08T16:02:58.477Z,30.70
2023-04-08T16:05:30.367Z,30.70
2023-04-08T16:08:01.510Z,30.70
2023-04-08T16:10:32.639Z,30.70
2023-04-08T16:13:17.668Z,30.80
2023-04-08T16:15:49.960Z,30.80
2023-04-08T16:18:20.984Z,30.90
2023-04-08T16:20:52.662Z,30.90
2023-04-08T16:23:24.019Z,30.80
2023-04-08T16:25:55.278Z,30.80
2023-04-08T16:28:27.686Z,30.80
2023-04-08T16:30:58.674Z,30.80
2023-04-08T16:33:31.109Z,30.80
2023-04-08T16:36:02.995Z,30.80
2023-04-08T16:38:34.165Z,30.80
2023-04-08T16:41:06.669Z,30.80
2023-04-08T16:43:37.898Z,30.80
2023-04-08T16:46:16.607Z,30.80
2023-04-08T16:48:47.587Z,30.80
2023-04-08T16:51:18.660Z,30.70
2023-04-08T16:53:49.739Z,30.80
2023-04-08T16:56:20.797Z,30.70
2023-04-08T16:58:51.825Z,30.60
2023-04-08T17:01:23.072Z,30.60
2023-04-08T17:03:54.468Z,30.50
2023-04-08T17:06:25.922Z,30.50
2023-04-08T17:08:57.103Z,30.50
2023-04-08T17:11:28.209Z,30.40
2023-04-08T17:14:00.147Z,30.40
2023-04-08T17:16:31.257Z,30.30
2023-04-08T17:19:02.294Z,30.30
2023-04-08T17:21:33.624Z,30.30
2023-04-08T17:24:04.600Z,30.30
2023-04-08T17:26:35.586Z,30.30
2023-04-08T17:29:06.631Z,30.30
2023-04-08T17:31:38.052Z,30.30
2023-04-08T17:34:09.124Z,30.40
2023-04-08T17:36:40.152Z,30.40
2023-04-08T17:39:11.178Z,30.40
2023-04-08T17:41:44.007Z,30.40
2023-04-08T17:44:14.755Z,30.40
2023-04-08T17:46:45.735Z,30.30
2023-04-08T17:49:16.731Z,30.30
2023-04-08T17:51:47.894Z,30.20
2023-04-08T17:54:19.022Z,30.20
2023-04-08T17:56:50.042Z,30.30
2023-04-08T17:59:21.105Z,30.30
2023-04-08T18:01:52.608Z,30.30
2023-04-08T18:04:23.781Z,30.30
2023-04-08T18:06:55.014Z,30.30
2023-04-08T18:09:25.994Z,30.30
2023-04-08T18:11:57.332Z,30.30
2023-04-08T18:14:29.481Z,30.30
2023-04-08T18:17:00.508Z,30.30
2023-04-08T18:19:32.054Z,30.30
2023-04-08T18:22:03.041Z,30.30
2023-04-08T18:24:34.137Z,30.30
2023-04-08T18:27:05.580Z,30.30
2023-04-08T18:29:36.591Z,30.30
2023-04-08T18:32:08.053Z,30.20
2023-04-08T18:34:40.099Z,30.20
2023-04-08T18:37:12.243Z,30.20
2023-04-08T18:39:45.168Z,30.20
2023-04-08T18:42:17.530Z,30.10
2023-04-08T18:44:48.537Z,30.10
2023-04-08T18:47:23.005Z,30.00
2023-04-08T18:49:54.134Z,29.90
2023-04-08T18:52:25.137Z,29.90
2023-04-08T18:54:56.303Z,29.90
2023-04-08T18:57:27.240Z,29.80
2023-04-08T18:59:58.952Z,29.80
2023-04-08T19:02:30.032Z,29.80
2023-04-08T19:05:01.391Z,29.80
2023-04-08T19:07:32.432Z,29.70
2023-04-08T19:10:03.427Z,29.70
2023-04-08T19:12:34.414Z,29.60
2023-04-08T19:15:05.866Z,29.60
2023-04-08T19:17:36.958Z,29.60
2023-04-08T19:20:08.718Z,29.50
2023-04-08T19:22:39.807Z,29.50
2023-04-08T19:25:11.301Z,29.50
2023-04-08T19:27:43.608Z,29.40
2023-04-08T19:30:15.264Z,29.40
2023-04-08T19:32:47.159Z,29.40
2023-04-08T19:35:18.136Z,29.30
2023-04-08T19:37:49.140Z,29.30
2023-04-08T19:40:20.820Z,29.30
2023-04-08T19:42:51.763Z,29.20
2023-04-08T19:45:22.855Z,29.20
2023-04-08T19:47:53.914Z,29.10
2023-04-08T19:50:26.018Z,29.00
2023-04-08T19:52:56.998Z,29.10
2023-04-08T19:55:27.999Z,29.00
2023-04-08T19:57:59.645Z,29.00
2023-04-08T20:00:31.496Z,28.90
2023-04-08T20:03:02.755Z,28.80
2023-04-08T20:05:34.074Z,28.80
2023-04-08T20:08:05.059Z,28.70
2023-04-08T20:10:36.836Z,28.70
2023-04-08T20:13:07.840Z,28.70
2023-04-08T20:15:38.957Z,28.60
2023-04-08T20:18:10.454Z,28.60
2023-04-08T20:20:41.417Z,28.50
2023-04-08T20:23:13.018Z,28.50
2023-04-08T20:25:43.966Z,28.40
2023-04-08T20:28:15.005Z,28.40
2023-04-08T20:30:46.044Z,28.40
2023-04-08T20:33:17.627Z,28.40
2023-04-08T20:35:50.047Z,28.40
2023-04-08T20:38:21.298Z,28.30
2023-04-08T20:40:52.260Z,28.30
2023-04-08T20:43:23.523Z,28.30
2023-04-08T20:45:54.938Z,28.30
2023-04-08T20:48:25.995Z,28.30
2023-04-08T20:50:57.283Z,28.30
2023-04-08T20:53:28.705Z,28.20
2023-04-08T20:55:59.923Z,28.20
2023-04-08T20:58:30.993Z,28.20
2023-04-08T21:01:02.543Z,28.10
2023-04-08T21:03:33.867Z,28.10
2023-04-08T21:06:05.011Z,28.10
2023-04-08T21:08:36.067Z,28.00
2023-04-08T21:11:07.058Z,28.00
2023-04-08T21:13:38.064Z,28.00
2023-04-08T21:16:09.693Z,28.00
2023-04-08T21:18:43.535Z,27.90
2023-04-08T21:21:14.997Z,27.90
2023-04-08T21:23:45.973Z,27.90
2023-04-08T21:26:16.943Z,27.90
2023-04-08T21:28:47.917Z,27.90
2023-04-08T21:31:18.937Z,27.90
2023-04-08T21:33:49.995Z,27.90
2023-04-08T21:36:21.519Z,27.90
2023-04-08T21:38:52.785Z,27.90
2023-04-08T21:41:25.458Z,27.90
2023-04-08T21:43:56.495Z,27.90
2023-04-08T21:46:27.680Z,27.80
2023-04-08T21:48:58.649Z,27.80
2023-04-08T21:51:29.830Z,27.80
2023-04-08T21:54:00.820Z,27.80
2023-04-08T21:56:31.799Z,27.80
2023-04-08T21:59:02.807Z,27.80
2023-04-08T22:01:34.020Z,27.80
2023-04-08T22:04:05.182Z,27.70
2023-04-08T22:06:36.300Z,27.70
2023-04-08T22:09:07.354Z,27.80
2023-04-08T22:11:38.338Z,27.70
2023-04-08T22:14:09.605Z,27.70
2023-04-08T22:16:41.365Z,27.70
2023-04-08T22:19:12.744Z,27.80
2023-04-08T22:21:43.693Z,27.80
2023-04-08T22:24:15.501Z,27.70
2023-04-08T22:26:46.582Z,27.60
2023-04-08T22:31:48.515Z,27.60
2023-04-08T22:34:19.546Z,27.50
2023-04-08T22:36:50.493Z,27.50
2023-04-08T22:39:21.473Z,27.40
2023-04-08T22:41:52.705Z,27.40
2023-04-08T22:44:23.872Z,27.40
2023-04-08T22:46:54.840Z,27.40
2023-04-08T22:49:25.845Z,27.40
2023-04-08T22:51:56.818Z,27.40
2023-04-08T22:54:27.917Z,27.40
2023-04-08T22:56:59.343Z,27.40
2023-04-08T22:59:30.287Z,27.30
2023-04-08T23:02:01.295Z,27.30
2023-04-08T23:04:32.491Z,27.30
2023-04-08T23:07:03.512Z,27.30
2023-04-08T23:09:34.709Z,27.20
2023-04-08T23:12:05.786Z,27.30
2023-04-08T23:14:36.722Z,27.30
2023-04-08T23:17:07.759Z,27.30
2023-04-08T23:19:38.767Z,27.20
2023-04-08T23:22:09.736Z,27.20
2023-04-08T23:24:40.957Z,27.20
2023-04-08T23:27:12.489Z,27.20
2023-04-08T23:29:43.493Z,27.20
2023-04-08T23:32:14.472Z,27.20
2023-04-08T23:34:45.478Z,27.20
2023-04-08T23:37:16.564Z,27.20
2023-04-08T23:39:47.925Z,27.30
2023-04-08T23:42:19.106Z,27.30
2023-04-08T23:44:53.247Z,27.20
2023-04-08T23:47:24.536Z,27.20
2023-04-08T23:49:55.522Z,27.20
2023-04-08T23:52:26.557Z,27.20
2023-04-08T23:54:57.678Z,27.20
2023-04-08T23:57:28.673Z,27.20
